createdAt,value
2018-05-27T00:02:04.378Z,88.94
2018-05-27T00:04:34.408Z,89.34
2018-05-27T00:07:03.470Z,87.29
2018-05-27T00:09:32.606Z,87.88
2018-05-27T00:12:01.645Z,89.75
2018-05-27T00:14:36.605Z,89.01
2018-05-27T00:17:05.708Z,90.14
2018-05-27T00:19:34.771Z,90.50
2018-05-27T00:22:03.821Z,91.24
2018-05-27T00:24:37.885Z,92.58
2018-05-27T00:27:06.965Z,93.49
2018-05-27T00:29:40.461Z,92.83
2018-05-27T00:32:09.560Z,90.61
2018-05-27T00:37:14.873Z,90.38
2018-05-27T00:39:48.177Z,91.22
2018-05-27T00:42:17.259Z,89.65
2018-05-27T00:45:00.659Z,90.69
2018-05-27T00:47:29.756Z,91.48
2018-05-27T00:49:58.854Z,90.98
2018-05-27T00:52:27.885Z,92.37
2018-05-27T00:54:57.993Z,92.90
2018-05-27T00:57:55.529Z,90.42
2018-05-27T01:00:24.629Z,92.20
2018-05-27T01:02:53.702Z,92.92
2018-05-27T01:05:22.777Z,91.69
2018-05-27T01:07:57.665Z,91.14
2018-05-27T01:10:28.634Z,93.07
2018-05-27T01:15:33.493Z,90.79
2018-05-27T01:18:02.566Z,92.54
2018-05-27T01:20:32.634Z,91.33
2018-05-27T01:23:01.708Z,91.26
2018-05-27T01:25:30.766Z,90.65
2018-05-27T01:27:59.822Z,88.92
2018-05-27T01:30:28.877Z,91.51
2018-05-27T01:35:36.193Z,90.87
2018-05-27T01:38:05.270Z,91.19
2018-05-27T01:43:10.046Z,89.67
2018-05-27T01:45:39.111Z,91.09
2018-05-27T01:48:08.189Z,90.63
2018-05-27T01:50:56.020Z,89.98
2018-05-27T01:53:33.109Z,92.18
2018-05-27T01:56:02.199Z,91.16
2018-05-27T01:58:34.852Z,91.89
2018-05-27T02:01:03.924Z,90.87
2018-05-27T02:03:41.498Z,90.93
2018-05-27T02:06:10.578Z,91.16
2018-05-27T02:08:40.582Z,91.74
2018-05-27T02:14:08.846Z,92.18
2018-05-27T02:16:40.854Z,93.06
2018-05-27T02:19:13.761Z,91.98
2018-05-27T02:21:42.815Z,91.52
2018-05-27T02:24:12.806Z,91.58
2018-05-27T02:26:41.905Z,92.47
2018-05-27T02:29:34.635Z,94.70
2018-05-27T02:32:18.846Z,93.98
2018-05-27T02:34:47.946Z,93.86
2018-05-27T02:37:17.918Z,93.57
2018-05-27T02:39:47.022Z,92.36
2018-05-27T02:44:51.859Z,90.59
2018-05-27T02:47:22.850Z,90.85
2018-05-27T02:49:51.950Z,89.98
2018-05-27T02:52:24.158Z,91.20
2018-05-27T02:54:53.277Z,90.85
2018-05-27T02:57:22.353Z,91.54
2018-05-27T02:59:51.425Z,91.50
2018-05-27T03:02:20.501Z,91.81
2018-05-27T03:04:49.579Z,91.92
2018-05-27T03:07:19.623Z,91.11
2018-05-27T03:09:49.030Z,91.23
2018-05-27T03:14:55.933Z,91.58
2018-05-27T03:17:25.913Z,93.45
2018-05-27T03:19:55.105Z,95.96
2018-05-27T03:22:26.078Z,94.15
2018-05-27T03:24:55.145Z,94.19
2018-05-27T03:29:59.911Z,94.16
2018-05-27T03:32:41.379Z,93.46
2018-05-27T03:35:21.590Z,95.18
2018-05-27T03:37:50.780Z,94.78
2018-05-27T03:40:19.849Z,95.03
2018-05-27T03:42:48.902Z,94.55
2018-05-27T03:45:21.723Z,94.22
2018-05-27T03:47:50.800Z,95.57
2018-05-27T03:50:27.578Z,97.35
2018-05-27T03:52:56.622Z,96.09
2018-05-27T03:58:02.325Z,93.86
2018-05-27T04:00:31.382Z,94.17
2018-05-27T04:03:00.437Z,92.36
2018-05-27T04:05:51.926Z,94.73
2018-05-27T04:08:31.999Z,94.90
2018-05-27T04:11:01.072Z,94.92
2018-05-27T04:16:07.825Z,94.27
2018-05-27T04:18:36.873Z,94.35
2018-05-27T04:23:42.134Z,92.96
2018-05-27T04:26:11.211Z,92.05
2018-05-27T04:28:40.309Z,91.98
2018-05-27T04:31:12.891Z,92.06
2018-05-27T04:38:58.399Z,92.49
2018-05-27T04:41:41.361Z,92.24
2018-05-27T04:44:10.433Z,92.37
2018-05-27T04:51:53.456Z,90.14
2018-05-27T04:54:26.154Z,90.68
2018-05-27T04:56:55.229Z,90.86
2018-05-27T04:59:32.821Z,90.98
2018-05-27T05:02:01.911Z,90.40
2018-05-27T05:07:11.200Z,89.81
2018-05-27T05:09:42.182Z,89.80
2018-05-27T05:12:21.231Z,89.73
2018-05-27T05:14:50.329Z,89.31
2018-05-27T05:17:19.333Z,88.83
2018-05-27T05:19:48.465Z,87.11
2018-05-27T05:24:57.137Z,86.59
2018-05-27T05:30:01.938Z,85.73
2018-05-27T05:32:34.788Z,85.91
2018-05-27T05:35:05.856Z,85.83
2018-05-27T05:37:35.813Z,85.59
2018-05-27T05:40:04.875Z,85.16
2018-05-27T05:42:35.953Z,85.16
2018-05-27T05:47:40.822Z,84.61
2018-05-27T05:50:09.930Z,83.75
2018-05-27T05:52:42.420Z,83.82
2018-05-27T05:55:20.418Z,83.52
2018-05-27T05:57:49.506Z,82.48
2018-05-27T06:00:18.675Z,81.85
2018-05-27T06:02:48.624Z,81.81
2018-05-27T06:05:17.681Z,81.21
2018-05-27T06:07:46.774Z,80.46
2018-05-27T06:12:51.509Z,79.01
2018-05-27T06:15:20.565Z,78.08
2018-05-27T06:17:49.639Z,77.00
2018-05-27T06:20:20.255Z,77.32
2018-05-27T06:22:49.309Z,75.99
2018-05-27T06:27:54.207Z,74.71
2018-05-27T06:30:23.258Z,74.60
2018-05-27T06:32:52.301Z,75.02
2018-05-27T06:35:21.386Z,75.00
2018-05-27T06:37:50.416Z,74.74
2018-05-27T06:40:19.621Z,69.79
2018-05-27T06:42:48.660Z,71.03
2018-05-27T06:47:53.511Z,70.33
2018-05-27T06:52:58.261Z,67.57
2018-05-27T06:55:27.318Z,67.19
2018-05-27T06:57:56.367Z,66.86
2018-05-27T07:03:05.993Z,63.89
2018-05-27T07:05:35.521Z,64.47
2018-05-27T07:08:04.601Z,65.95
2018-05-27T07:10:33.663Z,66.76
2018-05-27T07:13:02.693Z,65.00
2018-05-27T07:15:31.736Z,60.25
2018-05-27T07:18:01.751Z,66.11
2018-05-27T07:20:30.818Z,63.41
2018-05-27T07:22:59.872Z,62.15
2018-05-27T07:25:28.911Z,62.69
2018-05-27T07:27:57.961Z,62.82
2018-05-27T07:30:27.022Z,61.35
2018-05-27T07:32:56.059Z,61.88
2018-05-27T07:35:25.113Z,58.87
2018-05-27T07:37:54.185Z,56.71
2018-05-27T07:42:58.998Z,53.52
2018-05-27T07:45:28.095Z,53.81
2018-05-27T07:47:57.134Z,56.94
2018-05-27T07:53:01.957Z,56.01
2018-05-27T07:55:31.010Z,55.59
2018-05-27T07:58:00.066Z,56.62
2018-05-27T08:00:29.305Z,57.14
2018-05-27T08:02:58.333Z,54.68
2018-05-27T08:05:27.387Z,52.95
2018-05-27T08:07:56.425Z,54.33
2018-05-27T08:10:25.478Z,55.30
2018-05-27T08:12:54.522Z,55.73
2018-05-27T08:15:23.571Z,53.95
2018-05-27T08:17:52.613Z,53.50
2018-05-27T08:20:21.652Z,55.01
2018-05-27T08:22:50.729Z,53.88
2018-05-27T08:25:22.021Z,54.42
2018-05-27T08:27:51.143Z,53.00
2018-05-27T08:30:20.196Z,55.24
2018-05-27T08:32:49.241Z,52.14
2018-05-27T08:35:18.285Z,52.34
2018-05-27T08:37:47.337Z,52.49
2018-05-27T08:40:16.393Z,52.97
2018-05-27T08:42:45.434Z,50.43
2018-05-27T08:47:50.314Z,44.79
2018-05-27T08:50:19.362Z,48.49
2018-05-27T08:52:48.409Z,46.83
2018-05-27T08:55:18.038Z,47.69
2018-05-27T08:57:48.065Z,47.88
2018-05-27T09:00:17.122Z,43.97
2018-05-27T09:02:46.170Z,43.82
2018-05-27T09:05:15.222Z,44.80
2018-05-27T09:07:44.264Z,42.50
2018-05-27T09:10:13.326Z,45.16
2018-05-27T09:12:42.368Z,43.00
2018-05-27T09:17:48.308Z,40.18
2018-05-27T09:20:17.351Z,38.48
2018-05-27T09:22:46.408Z,39.98
2018-05-27T09:25:15.471Z,31.39
2018-05-27T09:27:46.165Z,35.13
2018-05-27T09:30:15.188Z,37.80
2018-05-27T09:32:44.606Z,33.48
2018-05-27T09:35:13.734Z,33.88
2018-05-27T09:37:43.431Z,37.95
2018-05-27T09:40:12.459Z,37.88
2018-05-27T09:45:18.712Z,34.43
2018-05-27T09:47:48.450Z,38.57
2018-05-27T09:50:19.061Z,37.22
2018-05-27T09:55:24.747Z,40.01
2018-05-27T09:57:53.875Z,37.53
2018-05-27T10:00:23.952Z,38.75
2018-05-27T10:02:52.985Z,38.62
2018-05-27T10:05:22.734Z,41.19
2018-05-27T10:07:51.798Z,41.83
2018-05-27T10:10:21.945Z,41.30
2018-05-27T10:15:27.485Z,36.91
2018-05-27T10:18:00.040Z,35.59
2018-05-27T10:20:30.871Z,35.13
2018-05-27T10:23:03.565Z,34.14
2018-05-27T10:25:34.268Z,35.66
2018-05-27T10:28:06.439Z,35.44
2018-05-27T10:30:39.773Z,34.20
2018-05-27T10:33:12.516Z,32.73
2018-05-27T10:35:42.366Z,34.55
2018-05-27T10:38:11.429Z,35.26
2018-05-27T10:40:40.464Z,32.61
2018-05-27T10:43:10.312Z,33.84
2018-05-27T10:45:44.292Z,31.22
2018-05-27T10:48:14.065Z,30.59
2018-05-27T10:53:25.774Z,29.42
2018-05-27T10:55:54.798Z,31.76
2018-05-27T10:58:24.093Z,29.45
2018-05-27T11:00:57.823Z,30.47
2018-05-27T11:03:29.133Z,30.08
2018-05-27T11:06:01.034Z,28.71
2018-05-27T11:08:31.768Z,28.40
2018-05-27T11:11:03.477Z,27.79
2018-05-27T11:13:35.789Z,27.93
2018-05-27T11:16:07.986Z,26.91
2018-05-27T11:18:40.918Z,26.91
2018-05-27T11:21:13.306Z,25.15
2018-05-27T11:26:22.428Z,24.80
2018-05-27T11:28:54.719Z,25.00
2018-05-27T11:31:26.547Z,25.51
2018-05-27T11:33:59.376Z,22.93
2018-05-27T11:36:30.062Z,25.94
2018-05-27T11:39:03.160Z,24.92
2018-05-27T11:41:35.345Z,22.23
2018-05-27T11:44:08.355Z,23.96
2018-05-27T11:46:41.160Z,24.71
2018-05-27T11:49:13.916Z,25.03
2018-05-27T11:51:44.624Z,24.30
2018-05-27T11:54:16.020Z,25.08
2018-05-27T11:56:46.905Z,24.98
2018-05-27T11:59:18.658Z,24.76
2018-05-27T12:01:53.332Z,25.82
2018-05-27T12:04:26.421Z,24.21
2018-05-27T12:06:57.806Z,22.71
2018-05-27T12:09:28.427Z,22.86
2018-05-27T12:12:00.048Z,19.77
2018-05-27T12:14:32.221Z,21.79
2018-05-27T12:17:03.999Z,22.84
2018-05-27T12:19:36.410Z,22.35
2018-05-27T12:22:08.465Z,21.31
2018-05-27T12:24:40.319Z,22.52
2018-05-27T12:27:11.886Z,23.77
2018-05-27T12:29:43.745Z,23.67
2018-05-27T12:34:51.053Z,24.15
2018-05-27T12:37:23.991Z,22.92
2018-05-27T12:39:56.200Z,24.40
2018-05-27T12:42:28.661Z,23.00
2018-05-27T12:45:00.812Z,24.22
2018-05-27T12:50:10.180Z,23.65
2018-05-27T12:52:41.751Z,24.53
2018-05-27T12:55:14.278Z,24.80
2018-05-27T12:57:46.789Z,22.94
2018-05-27T13:00:19.684Z,23.13
2018-05-27T13:02:53.950Z,23.83
2018-05-27T13:05:25.147Z,23.93
2018-05-27T13:07:57.570Z,23.36
2018-05-27T13:10:30.128Z,23.37
2018-05-27T13:15:42.059Z,23.78
2018-05-27T13:18:14.783Z,24.14
2018-05-27T13:25:27.646Z,21.60
2018-05-27T13:27:59.797Z,21.06
2018-05-27T13:30:31.640Z,21.17
2018-05-27T13:33:03.615Z,20.40
2018-05-27T13:40:47.466Z,24.75
2018-05-27T13:43:19.881Z,27.25
2018-05-27T13:45:51.807Z,26.39
2018-05-27T13:51:01.935Z,25.51
2018-05-27T13:53:34.754Z,24.12
2018-05-27T13:56:07.516Z,24.92
2018-05-27T13:58:39.090Z,25.33
2018-05-27T14:01:12.382Z,25.27
2018-05-27T14:03:44.378Z,25.86
2018-05-27T14:06:17.337Z,27.05
2018-05-27T14:08:49.334Z,26.93
2018-05-27T14:11:21.912Z,27.97
2018-05-27T14:13:54.080Z,27.70
2018-05-27T14:16:28.627Z,29.25
2018-05-27T14:19:01.743Z,28.79
2018-05-27T14:21:33.599Z,28.75
2018-05-27T14:24:06.079Z,28.46
2018-05-27T14:26:38.578Z,30.01
2018-05-27T14:29:11.065Z,31.97
2018-05-27T14:31:42.971Z,31.16
2018-05-27T14:34:19.040Z,30.77
2018-05-27T14:36:51.004Z,32.95
2018-05-27T14:39:24.572Z,29.73
2018-05-27T14:42:02.947Z,31.59
2018-05-27T14:44:41.129Z,29.95
2018-05-27T14:49:52.534Z,28.99
2018-05-27T14:52:24.868Z,29.34
2018-05-27T14:57:39.775Z,29.94
2018-05-27T15:00:14.902Z,30.03
2018-05-27T15:02:48.677Z,32.41
2018-05-27T15:05:22.374Z,32.04
2018-05-27T15:07:55.759Z,33.10
2018-05-27T15:10:29.795Z,32.49
2018-05-27T15:13:02.938Z,34.57
2018-05-27T15:15:36.428Z,32.35
2018-05-27T15:18:08.516Z,31.89
2018-05-27T15:20:40.554Z,31.85
2018-05-27T15:23:13.685Z,33.97
2018-05-27T15:25:46.378Z,32.90
2018-05-27T15:28:19.420Z,33.11
2018-05-27T15:30:51.988Z,32.58
2018-05-27T15:33:25.163Z,31.58
2018-05-27T15:35:58.054Z,30.73
2018-05-27T15:38:32.304Z,31.50
2018-05-27T15:41:08.391Z,31.46
2018-05-27T15:43:40.960Z,31.91
2018-05-27T15:46:12.972Z,31.37
2018-05-27T15:48:46.477Z,31.35
2018-05-27T15:53:55.484Z,28.80
2018-05-27T15:56:27.511Z,28.71
2018-05-27T15:59:00.534Z,28.63
2018-05-27T16:01:33.796Z,29.92
2018-05-27T16:04:06.936Z,29.89
2018-05-27T16:09:19.597Z,28.61
2018-05-27T16:14:29.280Z,27.20
2018-05-27T16:17:03.198Z,28.32
2018-05-27T16:19:37.872Z,27.97
2018-05-27T16:22:11.378Z,28.37
2018-05-27T16:24:44.838Z,29.49
2018-05-27T16:27:18.404Z,30.82
2018-05-27T16:29:50.367Z,31.67
2018-05-27T16:32:23.368Z,32.82
2018-05-27T16:34:56.243Z,32.33
2018-05-27T16:37:32.001Z,32.26
2018-05-27T16:40:04.848Z,33.15
2018-05-27T16:42:38.367Z,33.55
2018-05-27T16:47:52.951Z,35.23
2018-05-27T16:50:29.460Z,35.42
2018-05-27T16:53:02.710Z,37.41
2018-05-27T16:55:36.135Z,38.35
2018-05-27T16:58:09.208Z,37.28
2018-05-27T17:03:18.618Z,38.24
2018-05-27T17:05:51.693Z,38.70
2018-05-27T17:08:24.579Z,40.75
2018-05-27T17:11:00.760Z,40.76
2018-05-27T17:13:35.053Z,40.53
2018-05-27T17:16:07.927Z,40.44
2018-05-27T17:18:40.673Z,38.70
2018-05-27T17:21:14.131Z,41.20
2018-05-27T17:23:47.341Z,38.95
2018-05-27T17:28:57.343Z,39.54
2018-05-27T17:31:30.381Z,40.08
2018-05-27T17:34:00.045Z,38.90
2018-05-27T17:36:29.091Z,38.87
2018-05-27T17:38:58.149Z,38.75
2018-05-27T17:41:27.629Z,39.31
2018-05-27T17:43:56.733Z,40.59
2018-05-27T17:46:26.267Z,39.65
2018-05-27T17:48:55.300Z,39.73
2018-05-27T17:51:25.261Z,39.41
2018-05-27T17:53:54.310Z,39.86
2018-05-27T17:56:24.602Z,41.34
2018-05-27T17:58:53.646Z,41.91
2018-05-27T18:01:22.898Z,41.94
2018-05-27T18:03:53.316Z,41.70
2018-05-27T18:08:58.945Z,43.38
2018-05-27T18:11:28.003Z,43.71
2018-05-27T18:13:57.078Z,45.17
2018-05-27T18:16:26.778Z,45.18
2018-05-27T18:18:55.896Z,45.30
2018-05-27T18:21:24.974Z,45.68
2018-05-27T18:23:54.301Z,46.56
2018-05-27T18:26:23.326Z,46.89
2018-05-27T18:28:52.366Z,47.68
2018-05-27T18:31:21.874Z,47.88
2018-05-27T18:33:50.933Z,48.07
2018-05-27T18:36:19.978Z,48.99
2018-05-27T18:38:49.342Z,49.39
2018-05-27T18:41:18.333Z,50.96
2018-05-27T18:43:47.554Z,52.37
2018-05-27T18:46:17.628Z,54.24
2018-05-27T18:48:48.149Z,52.47
2018-05-27T18:51:18.550Z,61.75
2018-05-27T18:53:48.093Z,59.96
2018-05-27T18:56:18.798Z,64.77
2018-05-27T18:58:48.338Z,62.49
2018-05-27T19:01:19.957Z,62.93
2018-05-27T19:03:49.308Z,65.08
2018-05-27T19:06:19.873Z,59.78
2018-05-27T19:08:49.738Z,59.79
2018-05-27T19:11:21.611Z,62.83
2018-05-27T19:13:51.721Z,64.17
2018-05-27T19:16:22.319Z,63.43
2018-05-27T19:18:51.929Z,65.24
2018-05-27T19:21:23.989Z,65.67
2018-05-27T19:23:53.525Z,63.11
2018-05-27T19:26:23.277Z,64.17
2018-05-27T19:28:52.398Z,61.71
2018-05-27T19:31:22.716Z,60.37
2018-05-27T19:33:54.568Z,61.17
2018-05-27T19:36:23.624Z,63.95
2018-05-27T19:38:53.671Z,68.92
2018-05-27T19:41:23.722Z,69.88
2018-05-27T19:43:52.951Z,67.40
2018-05-27T19:46:22.044Z,68.83
2018-05-27T19:48:51.097Z,66.79
2018-05-27T19:51:21.372Z,66.51
2018-05-27T19:53:50.998Z,70.09
2018-05-27T19:58:56.631Z,76.34
2018-05-27T20:01:26.210Z,74.24
2018-05-27T20:03:55.334Z,74.78
2018-05-27T20:06:24.703Z,71.05
2018-05-27T20:08:54.122Z,69.38
2018-05-27T20:11:23.787Z,68.83
2018-05-27T20:13:53.309Z,72.42
2018-05-27T20:18:58.341Z,77.93
2018-05-27T20:21:27.425Z,74.80
2018-05-27T20:23:56.481Z,77.05
2018-05-27T20:26:25.530Z,70.40
2018-05-27T20:28:54.857Z,75.26
2018-05-27T20:31:24.113Z,73.49
2018-05-27T20:33:53.629Z,76.48
2018-05-27T20:36:22.670Z,78.53
2018-05-27T20:39:04.231Z,76.96
2018-05-27T20:44:10.888Z,73.99
2018-05-27T20:46:40.812Z,73.00
2018-05-27T20:51:47.262Z,73.81
2018-05-27T20:54:18.017Z,73.50
2018-05-27T20:56:48.526Z,74.32
2018-05-27T20:59:18.646Z,73.08
2018-05-27T21:01:50.479Z,74.22
2018-05-27T21:04:20.825Z,74.47
2018-05-27T21:06:51.373Z,77.99
2018-05-27T21:09:21.046Z,81.80
2018-05-27T21:11:51.148Z,82.04
2018-05-27T21:16:58.033Z,81.39
2018-05-27T21:19:28.588Z,80.57
2018-05-27T21:22:00.705Z,84.28
2018-05-27T21:24:32.661Z,82.70
2018-05-27T21:27:03.879Z,83.08
2018-05-27T21:29:34.980Z,80.51
2018-05-27T21:34:42.281Z,78.12
2018-05-27T21:37:12.130Z,77.73
2018-05-27T21:39:42.442Z,77.59
2018-05-27T21:44:49.328Z,77.87
2018-05-27T21:49:55.669Z,79.28
2018-05-27T21:52:25.482Z,78.06
2018-05-27T21:54:54.780Z,79.08
2018-05-27T21:57:25.678Z,79.61
2018-05-27T21:59:56.567Z,80.74
2018-05-27T22:02:27.084Z,81.28
2018-05-27T22:04:57.490Z,81.47
2018-05-27T22:07:27.796Z,85.23
2018-05-27T22:10:00.103Z,82.72
2018-05-27T22:15:06.430Z,82.04
2018-05-27T22:17:35.467Z,83.20
2018-05-27T22:22:40.312Z,80.94
2018-05-27T22:25:09.376Z,82.19
2018-05-27T22:32:49.917Z,82.83
2018-05-27T22:37:54.763Z,81.36
2018-05-27T22:40:23.823Z,85.10
2018-05-27T22:45:28.607Z,82.08
2018-05-27T22:47:57.666Z,86.75
2018-05-27T22:50:26.729Z,84.54
2018-05-27T22:52:55.847Z,86.08
2018-05-27T22:55:24.899Z,83.43
2018-05-27T22:57:53.950Z,88.57
2018-05-27T23:00:23.023Z,84.73
2018-05-27T23:02:52.072Z,86.00
2018-05-27T23:07:57.842Z,85.07
2018-05-27T23:13:02.613Z,83.73
2018-05-27T23:15:31.666Z,84.26
2018-05-27T23:18:00.719Z,87.99
2018-05-27T23:20:29.765Z,88.38
2018-05-27T23:22:58.822Z,89.38
2018-05-27T23:25:27.937Z,87.91
2018-05-27T23:30:32.758Z,87.13
2018-05-27T23:35:37.517Z,91.56
2018-05-27T23:38:06.561Z,90.05
2018-05-27T23:40:35.630Z,88.91
2018-05-27T23:45:40.463Z,89.38
2018-05-27T23:50:45.205Z,86.41
2018-05-27T23:53:15.022Z,86.11
2018-05-27T23:55:44.053Z,86.60
2018-05-27T23:58:13.109Z,86.34
